Mariba, Kentucky
Current Conditions -  °F | °C
As of 3:10 PM on Sunday 23 Nov 2014 (Local Time) from KSYM Reporting Station
Light Rain Light Rain  
Wind Chill: 59°   Ceiling: 6000
Heat Index: 59°   Visibility: 6mi
Dew Point: 48°   Wind: 8mph
Humidity: 67%   Direction: 140°SE
Pressure: 29.75"   Gusts: 16mph
Location:  37.9536°N, 83.6173°W
Report Text: KSYM 232010Z AUTO 14007G14KT 100V180 6SM -RA SCT044 BKN060 15/09 A2975 RMK AO2
Loading
Personal Weather Stations






























Interactive Weather Map New forecast layout! Learn more

10-Day Weather Forecast

Advertisements
Track Severe Weather on mobile